createdAt,value
2023-12-15T00:00:35.764Z,7.00
2023-12-15T00:03:04.279Z,6.63
2023-12-15T00:05:31.669Z,6.55
2023-12-15T00:07:58.943Z,7.13
2023-12-15T00:10:26.584Z,7.28
2023-12-15T00:12:54.682Z,7.53
2023-12-15T00:15:22.086Z,5.85
2023-12-15T00:17:49.375Z,6.15
2023-12-15T00:20:18.219Z,6.93
2023-12-15T00:22:46.273Z,7.20
2023-12-15T00:25:13.653Z,5.93
2023-12-15T00:27:41.249Z,4.85
2023-12-15T00:30:09.557Z,6.60
2023-12-15T00:32:36.795Z,7.18
2023-12-15T00:35:04.830Z,5.30
2023-12-15T00:37:31.989Z,7.35
2023-12-15T00:39:59.452Z,5.70
2023-12-15T00:42:27.002Z,6.28
2023-12-15T00:44:55.756Z,4.78
2023-12-15T00:47:22.933Z,5.30
2023-12-15T00:49:52.105Z,5.55
2023-12-15T00:52:19.312Z,5.75
2023-12-15T00:54:46.936Z,5.00
2023-12-15T00:57:14.340Z,6.20
2023-12-15T00:59:41.718Z,7.93
2023-12-15T01:02:09.724Z,6.30
2023-12-15T01:04:37.424Z,7.00
2023-12-15T01:07:04.874Z,5.63
2023-12-15T01:09:32.079Z,11.25
2023-12-15T01:11:59.378Z,10.25
2023-12-15T01:14:26.701Z,14.38
2023-12-15T01:16:54.007Z,12.65
2023-12-15T01:19:21.303Z,14.43
2023-12-15T01:21:48.487Z,15.13
2023-12-15T01:24:15.809Z,15.43
2023-12-15T01:26:42.987Z,14.60
2023-12-15T01:29:10.249Z,14.07
2023-12-15T01:31:37.479Z,13.05
2023-12-15T01:34:04.778Z,12.95
2023-12-15T01:36:32.062Z,13.05
2023-12-15T01:38:59.302Z,10.90
2023-12-15T01:41:26.484Z,9.80
2023-12-15T01:43:54.091Z,8.60
2023-12-15T01:46:21.378Z,8.90
2023-12-15T01:48:48.642Z,7.93
2023-12-15T01:51:16.523Z,7.38
2023-12-15T01:53:44.683Z,7.95
2023-12-15T01:56:12.286Z,7.22
2023-12-15T01:58:39.686Z,7.65
2023-12-15T02:01:08.692Z,7.25
2023-12-15T02:03:36.669Z,7.43
2023-12-15T02:06:04.854Z,5.72
2023-12-15T02:08:32.273Z,6.10
2023-12-15T02:10:59.680Z,5.97
2023-12-15T02:13:26.969Z,6.47
2023-12-15T02:15:54.165Z,7.28
2023-12-15T02:18:21.402Z,7.88
2023-12-15T02:20:48.653Z,7.80
2023-12-15T02:23:15.921Z,9.13
2023-12-15T02:25:43.256Z,8.75
2023-12-15T02:28:10.435Z,9.02
2023-12-15T02:30:37.766Z,8.23
2023-12-15T02:33:05.178Z,8.83
2023-12-15T02:35:32.653Z,13.20
2023-12-15T02:38:01.557Z,11.60
2023-12-15T02:40:28.748Z,9.20
2023-12-15T02:42:55.963Z,9.82
2023-12-15T02:45:23.257Z,11.45
2023-12-15T02:47:50.661Z,10.57
2023-12-15T02:50:17.923Z,10.13
2023-12-15T02:52:45.179Z,11.10
2023-12-15T02:55:14.588Z,12.27
2023-12-15T02:57:41.736Z,9.40
2023-12-15T03:00:09.454Z,8.85
2023-12-15T03:02:36.615Z,10.43
2023-12-15T03:05:04.032Z,10.38
2023-12-15T03:07:31.334Z,10.90
2023-12-15T03:09:58.527Z,8.45
2023-12-15T03:12:25.754Z,11.80
2023-12-15T03:14:52.959Z,10.35
2023-12-15T03:17:20.405Z,11.48
2023-12-15T03:19:47.604Z,13.02
2023-12-15T03:22:14.967Z,12.25
2023-12-15T03:24:42.197Z,12.05
2023-12-15T03:27:09.372Z,11.82
2023-12-15T03:29:36.547Z,10.32
2023-12-15T03:32:03.966Z,10.73
2023-12-15T03:34:31.187Z,14.43
2023-12-15T03:36:58.407Z,18.33
2023-12-15T03:39:25.670Z,18.55
2023-12-15T03:41:52.799Z,11.18
2023-12-15T03:44:20.068Z,20.55
2023-12-15T03:46:47.235Z,18.77
2023-12-15T03:49:14.515Z,20.27
2023-12-15T03:51:41.746Z,19.50
2023-12-15T03:54:08.927Z,20.25
2023-12-15T03:56:36.267Z,20.38
2023-12-15T03:59:03.584Z,19.85
2023-12-15T04:01:31.597Z,17.80
2023-12-15T04:04:02.030Z,19.55
2023-12-15T04:06:29.217Z,21.13
2023-12-15T04:08:57.072Z,21.98
2023-12-15T04:11:24.324Z,23.05
2023-12-15T04:13:51.673Z,19.40
2023-12-15T04:16:18.820Z,20.77
2023-12-15T04:18:46.109Z,20.63
2023-12-15T04:21:13.354Z,19.33
2023-12-15T04:23:40.593Z,16.90
2023-12-15T04:26:08.649Z,20.73
2023-12-15T04:28:35.856Z,16.15
2023-12-15T04:31:03.157Z,15.80
2023-12-15T04:33:30.478Z,18.63
2023-12-15T04:35:57.683Z,18.35
2023-12-15T04:38:25.005Z,19.77
2023-12-15T04:40:52.249Z,20.02
2023-12-15T04:43:19.478Z,20.35
2023-12-15T04:45:46.614Z,22.70
2023-12-15T04:48:13.900Z,21.13
2023-12-15T04:50:41.237Z,24.15
2023-12-15T04:53:08.770Z,19.80
2023-12-15T04:55:35.940Z,22.90
2023-12-15T04:58:03.853Z,20.77
2023-12-15T05:00:31.070Z,24.27
2023-12-15T05:02:58.354Z,23.30
2023-12-15T05:05:25.675Z,23.17
2023-12-15T05:07:53.024Z,21.27
2023-12-15T05:10:20.393Z,23.10
2023-12-15T05:12:47.614Z,24.37
2023-12-15T05:15:14.897Z,24.23
2023-12-15T05:17:42.422Z,21.60
2023-12-15T05:20:10.429Z,17.92
2023-12-15T05:22:37.569Z,20.88
2023-12-15T05:25:05.103Z,22.55
2023-12-15T05:27:32.314Z,22.60
2023-12-15T05:29:59.435Z,20.58
2023-12-15T05:32:26.804Z,20.40
2023-12-15T05:34:54.134Z,20.35
2023-12-15T05:37:21.774Z,24.35
2023-12-15T05:39:49.013Z,21.88
2023-12-15T05:42:17.307Z,22.43
2023-12-15T05:44:44.531Z,22.63
2023-12-15T05:47:11.849Z,24.58
2023-12-15T05:49:42.490Z,25.20
2023-12-15T05:52:11.443Z,25.10
2023-12-15T05:54:42.333Z,25.58
2023-12-15T05:57:12.812Z,28.85
2023-12-15T05:59:42.175Z,35.63
2023-12-15T06:02:11.083Z,41.67
2023-12-15T06:04:38.378Z,42.45
2023-12-15T06:07:05.710Z,40.72
2023-12-15T06:09:35.366Z,39.90
2023-12-15T06:12:04.689Z,42.47
2023-12-15T06:14:32.073Z,36.90
2023-12-15T06:16:59.274Z,34.13
2023-12-15T06:19:26.726Z,33.20
2023-12-15T06:21:54.053Z,31.10
2023-12-15T06:24:21.301Z,30.13
2023-12-15T06:26:48.723Z,35.42
2023-12-15T06:29:16.582Z,39.97
2023-12-15T06:31:49.941Z,42.80
2023-12-15T06:34:17.671Z,41.80
2023-12-15T06:36:45.021Z,39.50
2023-12-15T06:39:12.869Z,40.20
2023-12-15T06:41:40.125Z,42.35
2023-12-15T06:44:08.064Z,52.17
2023-12-15T06:46:40.755Z,46.28
2023-12-15T06:49:08.259Z,44.40
2023-12-15T06:51:35.671Z,43.25
2023-12-15T06:54:03.588Z,41.75
2023-12-15T06:56:31.806Z,39.78
2023-12-15T06:58:59.552Z,38.25
2023-12-15T07:01:26.702Z,42.58
2023-12-15T07:03:54.739Z,38.42
2023-12-15T07:06:22.261Z,41.17
2023-12-15T07:08:55.445Z,33.45
2023-12-15T07:11:25.202Z,27.55
2023-12-15T07:13:52.679Z,25.48
2023-12-15T07:16:20.485Z,35.33
2023-12-15T07:18:47.828Z,40.20
2023-12-15T07:21:15.327Z,37.75
2023-12-15T07:23:42.588Z,38.28
2023-12-15T07:26:12.187Z,37.78
2023-12-15T07:28:39.385Z,42.78
2023-12-15T07:31:08.971Z,31.83
2023-12-15T07:33:37.650Z,30.42
2023-12-15T07:36:05.344Z,29.60
2023-12-15T07:38:33.437Z,18.02
2023-12-15T07:41:01.073Z,26.42
2023-12-15T07:43:29.769Z,32.23
2023-12-15T07:45:56.880Z,34.80
2023-12-15T07:48:24.868Z,31.90
2023-12-15T07:50:52.205Z,30.55
2023-12-15T07:53:19.752Z,32.40
2023-12-15T07:55:47.269Z,31.77
2023-12-15T07:58:15.121Z,42.63
2023-12-15T08:00:42.352Z,44.10
2023-12-15T08:03:10.300Z,49.92
2023-12-15T08:05:37.961Z,48.05
2023-12-15T08:08:06.561Z,37.28
2023-12-15T08:10:36.342Z,32.97
2023-12-15T08:13:03.846Z,36.47
2023-12-15T08:15:31.177Z,39.38
2023-12-15T08:17:58.836Z,42.03
2023-12-15T08:20:26.185Z,32.33
2023-12-15T08:22:53.446Z,34.10
2023-12-15T08:25:20.838Z,37.80
2023-12-15T08:27:48.044Z,35.00
2023-12-15T08:30:15.466Z,34.47
2023-12-15T08:32:42.823Z,32.10
2023-12-15T08:35:10.099Z,30.58
2023-12-15T08:37:37.616Z,34.35
2023-12-15T08:40:05.587Z,30.17
2023-12-15T08:42:33.336Z,34.97
2023-12-15T08:45:00.598Z,37.45
2023-12-15T08:47:27.926Z,43.00
2023-12-15T08:49:55.180Z,43.30
2023-12-15T08:52:22.467Z,42.63
2023-12-15T08:54:49.653Z,47.70
2023-12-15T08:57:17.132Z,48.47
2023-12-15T08:59:44.410Z,47.17
2023-12-15T09:02:12.795Z,51.88
2023-12-15T09:04:44.998Z,44.70
2023-12-15T09:07:18.665Z,49.20
2023-12-15T09:09:45.999Z,45.72
2023-12-15T09:12:13.217Z,44.20
2023-12-15T09:14:41.075Z,46.92
2023-12-15T09:17:13.140Z,40.47
2023-12-15T09:19:42.463Z,39.95
2023-12-15T09:22:09.629Z,38.63
2023-12-15T09:24:37.196Z,40.97
2023-12-15T09:27:05.415Z,42.75
2023-12-15T09:29:36.325Z,43.45
2023-12-15T09:32:04.719Z,38.05
2023-12-15T09:34:32.461Z,39.85
2023-12-15T09:37:00.064Z,40.58
2023-12-15T09:39:27.306Z,33.63
2023-12-15T09:41:55.228Z,34.78
2023-12-15T09:44:22.660Z,35.90
2023-12-15T09:46:50.534Z,35.35
2023-12-15T09:49:20.094Z,38.78
2023-12-15T09:51:54.812Z,34.67
2023-12-15T09:54:22.829Z,34.88
2023-12-15T09:56:51.137Z,36.67
2023-12-15T09:59:19.530Z,35.20
2023-12-15T10:01:46.768Z,37.53
2023-12-15T10:04:14.397Z,38.42
2023-12-15T10:06:41.663Z,44.50
2023-12-15T10:09:15.067Z,41.10
2023-12-15T10:11:45.644Z,41.00
2023-12-15T10:14:14.468Z,46.40
2023-12-15T10:16:42.591Z,45.25
2023-12-15T10:19:11.072Z,49.13
2023-12-15T10:21:39.121Z,46.03
2023-12-15T10:24:24.222Z,37.60
2023-12-15T10:26:52.246Z,40.75
2023-12-15T10:29:20.584Z,41.30
2023-12-15T10:31:52.888Z,50.15
2023-12-15T10:34:25.111Z,51.00
2023-12-15T10:36:53.571Z,68.70
2023-12-15T10:39:21.602Z,60.58
2023-12-15T10:41:50.416Z,31.80
2023-12-15T10:44:17.610Z,37.88
2023-12-15T10:46:48.047Z,18.17
2023-12-15T10:49:16.853Z,23.90
2023-12-15T10:51:44.891Z,22.60
2023-12-15T10:54:12.852Z,23.47
2023-12-15T10:56:40.365Z,28.17
2023-12-15T10:59:09.159Z,31.40
2023-12-15T11:01:39.633Z,29.92
2023-12-15T11:04:23.714Z,22.88
2023-12-15T11:06:51.784Z,25.00
2023-12-15T11:09:43.028Z,23.67
2023-12-15T11:12:25.911Z,13.65
2023-12-15T11:15:09.699Z,11.48
2023-12-15T11:18:09.553Z,19.95
2023-12-15T11:20:38.120Z,15.98
2023-12-15T11:23:10.816Z,16.67
2023-12-15T11:25:39.918Z,14.20
2023-12-15T11:28:10.560Z,9.30
2023-12-15T11:30:43.502Z,8.68
2023-12-15T11:33:26.209Z,11.90
2023-12-15T11:36:15.976Z,10.45
2023-12-15T11:38:50.168Z,10.98
2023-12-15T11:41:20.107Z,11.70
2023-12-15T11:43:47.472Z,11.33
2023-12-15T11:46:15.602Z,10.38
2023-12-15T11:48:43.329Z,8.70
2023-12-15T11:51:11.065Z,10.20
2023-12-15T11:53:41.602Z,31.60
2023-12-15T11:56:12.832Z,18.25
2023-12-15T11:58:40.571Z,9.02
2023-12-15T12:01:10.126Z,9.90
2023-12-15T12:03:38.277Z,8.70
2023-12-15T12:06:10.262Z,13.30
2023-12-15T12:08:39.038Z,11.20
2023-12-15T12:11:09.300Z,9.25
2023-12-15T12:13:41.216Z,10.00
2023-12-15T12:16:09.188Z,10.55
2023-12-15T12:18:37.381Z,8.90
2023-12-15T12:21:08.751Z,7.22
2023-12-15T12:23:43.244Z,8.10
2023-12-15T12:26:15.907Z,8.43
2023-12-15T12:28:52.835Z,6.53
2023-12-15T12:31:21.656Z,7.15
2023-12-15T12:33:49.070Z,10.77
2023-12-15T12:36:17.502Z,11.90
2023-12-15T12:38:49.358Z,8.98
2023-12-15T12:41:17.580Z,14.70
2023-12-15T12:43:45.017Z,12.45
2023-12-15T12:46:15.946Z,19.95
2023-12-15T12:48:48.943Z,18.55
2023-12-15T12:51:17.440Z,15.95
2023-12-15T12:53:44.814Z,20.60
2023-12-15T12:56:13.951Z,14.07
2023-12-15T12:58:41.947Z,15.55
2023-12-15T13:01:10.579Z,7.18
2023-12-15T13:03:38.205Z,9.95
2023-12-15T13:06:06.358Z,13.97
2023-12-15T13:08:33.632Z,12.20
2023-12-15T13:11:01.967Z,14.77
2023-12-15T13:13:29.693Z,8.52
2023-12-15T13:15:57.296Z,9.98
2023-12-15T13:18:24.577Z,8.85
2023-12-15T13:20:53.068Z,12.82
2023-12-15T13:23:24.032Z,9.23
2023-12-15T13:25:51.541Z,11.57
2023-12-15T13:28:19.957Z,15.13
2023-12-15T13:30:48.510Z,18.80
2023-12-15T13:33:17.016Z,11.07
2023-12-15T13:35:45.430Z,12.68
2023-12-15T13:38:12.671Z,11.43
2023-12-15T13:40:40.478Z,12.50
2023-12-15T13:43:09.706Z,10.57
2023-12-15T13:45:39.861Z,7.75
2023-12-15T13:48:09.467Z,9.18
2023-12-15T13:50:36.995Z,10.70
2023-12-15T13:53:04.647Z,9.88
2023-12-15T13:55:31.982Z,14.85
2023-12-15T13:57:59.631Z,9.48
2023-12-15T14:00:27.231Z,9.82
2023-12-15T14:02:54.802Z,6.95
2023-12-15T14:05:22.343Z,9.65
2023-12-15T14:07:49.741Z,11.88
2023-12-15T14:10:17.029Z,16.25
2023-12-15T14:12:44.708Z,16.08
2023-12-15T14:15:12.329Z,15.90
2023-12-15T14:17:40.224Z,17.02
2023-12-15T14:20:09.439Z,19.77
2023-12-15T14:22:37.694Z,19.02
2023-12-15T14:25:07.447Z,19.10
2023-12-15T14:27:36.292Z,21.58
2023-12-15T14:30:07.014Z,19.30
2023-12-15T14:32:35.366Z,14.82
2023-12-15T14:35:03.705Z,12.65
2023-12-15T14:37:31.664Z,14.13
2023-12-15T14:39:59.951Z,18.10
2023-12-15T14:42:27.614Z,21.88
2023-12-15T14:44:54.959Z,18.40
2023-12-15T14:47:22.949Z,16.52
2023-12-15T14:49:50.887Z,21.77
2023-12-15T14:52:18.635Z,17.42
2023-12-15T14:54:46.511Z,11.40
2023-12-15T14:57:15.452Z,15.63
2023-12-15T14:59:43.079Z,14.60
2023-12-15T15:02:12.038Z,12.30
2023-12-15T15:04:39.295Z,11.65
2023-12-15T15:07:06.787Z,10.98
2023-12-15T15:09:34.081Z,10.98
2023-12-15T15:12:01.249Z,11.20
2023-12-15T15:14:28.679Z,9.90
2023-12-15T15:16:55.955Z,10.90
2023-12-15T15:19:23.262Z,11.90
2023-12-15T15:21:50.887Z,13.88
2023-12-15T15:24:18.089Z,13.93
2023-12-15T15:26:45.401Z,21.60
2023-12-15T15:29:12.769Z,17.10
2023-12-15T15:31:40.070Z,15.60
2023-12-15T15:34:07.503Z,15.75
2023-12-15T15:36:38.472Z,16.67
2023-12-15T15:39:05.767Z,13.23
2023-12-15T15:41:33.083Z,15.02
2023-12-15T15:44:06.230Z,12.80
2023-12-15T15:46:38.335Z,15.00
2023-12-15T15:49:05.665Z,12.25
2023-12-15T15:51:34.239Z,16.73
2023-12-15T15:54:01.561Z,14.68
2023-12-15T15:56:28.778Z,11.10
2023-12-15T15:58:57.940Z,9.00
2023-12-15T16:01:35.390Z,13.27
2023-12-15T16:04:08.737Z,13.13
2023-12-15T16:06:36.317Z,10.07
2023-12-15T16:09:03.947Z,9.80
2023-12-15T16:11:31.351Z,10.00
2023-12-15T16:14:04.835Z,9.10
2023-12-15T16:16:35.950Z,11.88
2023-12-15T16:19:03.355Z,12.45
2023-12-15T16:21:36.807Z,10.70
2023-12-15T16:24:06.317Z,6.13
2023-12-15T16:26:33.997Z,7.63
2023-12-15T16:29:01.447Z,6.93
2023-12-15T16:31:28.791Z,4.80
2023-12-15T16:33:56.450Z,5.68
2023-12-15T16:36:24.242Z,6.18
2023-12-15T16:38:51.835Z,5.43
2023-12-15T16:41:29.157Z,6.28
2023-12-15T16:43:56.423Z,7.15
2023-12-15T16:46:23.942Z,5.93
2023-12-15T16:48:55.434Z,4.90
2023-12-15T16:51:28.645Z,7.30
2023-12-15T16:53:55.916Z,7.38
2023-12-15T16:56:23.188Z,8.73
2023-12-15T16:58:50.844Z,13.67
2023-12-15T17:01:18.309Z,11.00
2023-12-15T17:03:46.842Z,5.72
2023-12-15T17:06:14.848Z,6.53
2023-12-15T17:08:43.532Z,7.37
2023-12-15T17:11:12.168Z,4.70
2023-12-15T17:13:39.493Z,5.00
2023-12-15T17:16:07.312Z,3.80
2023-12-15T17:18:34.715Z,7.40
2023-12-15T17:21:02.156Z,5.45
2023-12-15T17:23:29.524Z,7.22
2023-12-15T17:25:56.848Z,6.88
2023-12-15T17:28:24.163Z,7.93
2023-12-15T17:30:51.513Z,7.82
2023-12-15T17:33:18.799Z,7.75
2023-12-15T17:35:47.581Z,7.20
2023-12-15T17:38:14.784Z,6.78
2023-12-15T17:40:42.052Z,7.68
2023-12-15T17:43:09.412Z,5.88
2023-12-15T17:45:39.910Z,6.18
2023-12-15T17:48:11.325Z,6.22
2023-12-15T17:50:39.258Z,5.45
2023-12-15T17:53:07.171Z,8.05
2023-12-15T17:55:35.595Z,7.50
2023-12-15T17:58:03.181Z,7.88
2023-12-15T18:00:30.566Z,9.18
2023-12-15T18:02:57.914Z,8.85
2023-12-15T18:05:25.717Z,10.83
2023-12-15T18:07:56.153Z,10.50
2023-12-15T18:10:23.473Z,8.70
2023-12-15T18:12:50.716Z,9.65
2023-12-15T18:15:18.097Z,10.77
2023-12-15T18:17:45.384Z,6.20
2023-12-15T18:20:13.250Z,8.88
2023-12-15T18:22:41.000Z,10.95
2023-12-15T18:25:08.807Z,10.82
2023-12-15T18:27:37.138Z,10.90
2023-12-15T18:30:04.925Z,8.15
2023-12-15T18:32:32.517Z,9.88
2023-12-15T18:34:59.757Z,10.15
2023-12-15T18:37:28.200Z,8.98
2023-12-15T18:39:55.536Z,9.95
2023-12-15T18:42:24.492Z,10.73
2023-12-15T18:44:51.733Z,9.75
2023-12-15T18:47:19.182Z,10.90
2023-12-15T18:49:46.931Z,11.68
2023-12-15T18:52:20.526Z,10.57
2023-12-15T18:54:49.074Z,10.45
2023-12-15T18:57:16.886Z,11.88
2023-12-15T18:59:44.751Z,9.02
2023-12-15T19:02:13.009Z,14.23
2023-12-15T19:04:42.402Z,14.05
2023-12-15T19:07:10.020Z,15.93
2023-12-15T19:09:38.888Z,13.83
2023-12-15T19:12:07.386Z,13.70
2023-12-15T19:14:36.123Z,13.05
2023-12-15T19:17:03.371Z,11.70
2023-12-15T19:19:30.875Z,10.02
2023-12-15T19:21:58.374Z,11.23
2023-12-15T19:24:25.833Z,10.63
2023-12-15T19:26:53.027Z,10.50
2023-12-15T19:29:20.644Z,8.38
2023-12-15T19:31:48.064Z,9.07
2023-12-15T19:34:16.715Z,9.32
2023-12-15T19:36:44.232Z,9.35
2023-12-15T19:39:12.129Z,11.05
2023-12-15T19:41:39.838Z,11.60
2023-12-15T19:44:07.797Z,10.43
2023-12-15T19:46:38.514Z,12.23
2023-12-15T19:49:06.800Z,9.32
2023-12-15T19:51:34.298Z,8.02
2023-12-15T19:54:08.717Z,8.32
2023-12-15T19:56:44.449Z,7.45
2023-12-15T19:59:11.885Z,7.07
2023-12-15T20:01:39.149Z,8.73
2023-12-15T20:04:06.627Z,7.93
2023-12-15T20:06:36.263Z,8.88
2023-12-15T20:09:07.010Z,8.97
2023-12-15T20:11:35.686Z,8.27
2023-12-15T20:14:03.879Z,9.23
2023-12-15T20:16:31.783Z,9.30
2023-12-15T20:18:59.772Z,8.45
2023-12-15T20:21:29.756Z,8.20
2023-12-15T20:23:57.767Z,9.07
2023-12-15T20:26:25.404Z,9.13
2023-12-15T20:28:52.777Z,9.07
2023-12-15T20:31:20.114Z,8.50
2023-12-15T20:33:47.561Z,7.18
2023-12-15T20:36:21.605Z,8.73
2023-12-15T20:38:49.068Z,9.82
2023-12-15T20:41:23.430Z,6.05
2023-12-15T20:43:51.860Z,4.40
2023-12-15T20:46:19.655Z,6.90
2023-12-15T20:48:47.463Z,7.50
2023-12-15T20:51:24.778Z,6.25
2023-12-15T20:53:52.450Z,6.03
2023-12-15T20:56:30.408Z,5.63
2023-12-15T20:58:58.317Z,5.38
2023-12-15T21:01:26.004Z,5.55
2023-12-15T21:03:53.673Z,4.28
2023-12-15T21:06:25.507Z,3.78
2023-12-15T21:08:53.502Z,3.30
2023-12-15T21:11:21.830Z,3.22
2023-12-15T21:13:49.166Z,2.80
2023-12-15T21:16:29.950Z,4.70
2023-12-15T21:18:57.889Z,4.28
2023-12-15T21:21:36.179Z,3.55
2023-12-15T21:24:04.899Z,3.85
2023-12-15T21:26:32.493Z,3.97
2023-12-15T21:29:00.266Z,4.20
2023-12-15T21:31:33.501Z,4.35
2023-12-15T21:34:00.968Z,4.70
2023-12-15T21:36:28.189Z,4.95
2023-12-15T21:38:55.888Z,2.97
2023-12-15T21:41:23.934Z,3.85
2023-12-15T21:43:53.121Z,3.65
2023-12-15T21:46:21.370Z,5.35
2023-12-15T21:48:48.908Z,4.95
2023-12-15T21:51:21.405Z,4.53
2023-12-15T21:53:49.870Z,4.07
2023-12-15T21:56:16.989Z,5.88
2023-12-15T21:58:44.311Z,5.97
2023-12-15T22:01:19.130Z,6.73
2023-12-15T22:03:53.062Z,3.42
2023-12-15T22:06:21.678Z,3.88
2023-12-15T22:08:50.176Z,4.82
2023-12-15T22:11:17.695Z,4.93
2023-12-15T22:13:47.249Z,5.60
2023-12-15T22:16:14.698Z,4.88
2023-12-15T22:18:42.528Z,8.18
2023-12-15T22:21:10.737Z,3.67
2023-12-15T22:23:41.277Z,3.78
2023-12-15T22:26:11.470Z,2.90
2023-12-15T22:28:39.820Z,4.33
2023-12-15T22:31:07.778Z,3.58
2023-12-15T22:33:36.161Z,2.95
2023-12-15T22:36:04.460Z,6.30
2023-12-15T22:38:32.066Z,2.50
2023-12-15T22:40:59.148Z,2.63
2023-12-15T22:43:26.725Z,4.80
2023-12-15T22:45:54.282Z,3.23
2023-12-15T22:48:21.697Z,3.55
2023-12-15T22:50:48.805Z,4.05
2023-12-15T22:53:15.979Z,3.67
2023-12-15T22:55:43.348Z,2.80
2023-12-15T22:58:10.783Z,3.58
2023-12-15T23:00:38.505Z,3.13
2023-12-15T23:03:06.222Z,4.18
2023-12-15T23:05:34.506Z,4.10
2023-12-15T23:08:01.732Z,4.00
2023-12-15T23:10:29.426Z,4.13
2023-12-15T23:12:56.629Z,2.65
2023-12-15T23:15:24.923Z,2.23
2023-12-15T23:17:52.777Z,1.98
2023-12-15T23:20:20.734Z,2.70
2023-12-15T23:22:47.939Z,2.85
2023-12-15T23:25:16.009Z,3.50
2023-12-15T23:27:43.823Z,2.38
2023-12-15T23:30:12.181Z,4.47
2023-12-15T23:32:39.393Z,2.58
2023-12-15T23:35:09.652Z,2.00
2023-12-15T23:37:37.164Z,2.07
2023-12-15T23:40:05.593Z,2.43
2023-12-15T23:42:33.114Z,2.30
2023-12-15T23:45:00.526Z,1.98
2023-12-15T23:47:28.511Z,2.85
2023-12-15T23:49:57.473Z,3.00
2023-12-15T23:52:26.350Z,3.15
2023-12-15T23:54:54.158Z,1.95
2023-12-15T23:57:21.713Z,2.25
2023-12-15T23:59:49.821Z,1.52
